Aérodrome :
LOGIN :

S'inscrire | Disclaimer

   EN    FR    IT 

 










Légende :    VFR   VFR Marginal   IFR   IFR Intensif   IFR Très Intensif
Visi : 
Plafond : 
>= 8 km
>= 3000ft
5 à 8 km
1000 à 3000 ft
1500m à 5 km
500 à 1000 ft
800 à 1500m
200 à 500 ft
< 800m
< 200 ft
Symboles :   Orages  Brouillard  Fortes neiges  Fortes précipitations  Vent > 20 kt
SIGMETs :   Divers  Orages  Givrage  Turbulence  Onde Orograph.  Cendres Volcan.






- Altitude de l'aérodrome : 399 ft
- Code IATA : KIV


LUKK - Chisinau Int.

DERNIER METAR :
  • 201130Z 12010KT 8000 OVC011 10/08 Q1026 R08/D TEMPO 4100 BR OVC006

METARs EXPIRÉS :
  • 201100Z 10009KT 6000 OVC009 10/08 Q1026 R08/D TEMPO 2800 BR OVC003
  • 201030Z 10010KT 5000 BR OVC007 10/08 Q1026 R08/D TEMPO 2800 BR OVC003
  • 201000Z 10010KT 070V130 5000 BR OVC008 10/09 Q1026 R08/D TEMPO OVC005
  • 200930Z 11010KT 9000 OVC012 11/09 Q1026 R08/D NOSIG
  • 200900Z 14008KT 8000 BKN012 BKN058 11/09 Q1026 R08/CLRD// NOSIG

TAF TAF LUKK
Valide du 20 à 12h jusqu'au 21 à 12h UTC


201120Z 2012/2112 12012KT 6000 OVC008
TEMPO 2012/2017 2400 BR OVC003
BECMG 2017/2019 10016KT 3800 BR OVC005
TEMPO 2019/2112 10016G26KT 1500 RA BR OVC002



MET'MAP, la Météo Aéronautique d'un coup d'oeil ! - Copyright ORBIFLY Décembre 2007 - Disclaimer

ORBIFLY MET'MAP TEAM :

Programmation & Développement : Alexandra Zaïnal
Conception & Développement : Baudouin d'Aumeries
Co-Programmation & Développement : Marc-Olivier Méhu
Soutien technique & logistique : Manuel Goepfert

Contact : metmap@orbifly.com




SOURCES & CREDITS :

   NOAA